sensor_id;sensor_type;location;lat;lon;timestamp;pressure;altitude;pressure_sealevel;temperature;humidity
46079;BME280;31820;51.880;-0.518;2022-08-21T00:01:10;99662.41;;;18.50;91.62
46079;BME280;31820;51.880;-0.518;2022-08-21T00:03:38;99664.28;;;18.49;92.56
46079;BME280;31820;51.880;-0.518;2022-08-21T00:06:04;99665.31;;;18.48;92.60
46079;BME280;31820;51.880;-0.518;2022-08-21T00:08:30;99672.84;;;18.46;93.06
46079;BME280;31820;51.880;-0.518;2022-08-21T00:10:55;99663.66;;;18.47;92.75
46079;BME280;31820;51.880;-0.518;2022-08-21T00:13:21;99666.56;;;18.46;92.83
46079;BME280;31820;51.880;-0.518;2022-08-21T00:15:48;99667.59;;;18.44;93.19
46079;BME280;31820;51.880;-0.518;2022-08-21T00:18:14;99667.97;;;18.41;93.47
46079;BME280;31820;51.880;-0.518;2022-08-21T00:20:42;99658.63;;;18.36;94.41
46079;BME280;31820;51.880;-0.518;2022-08-21T00:23:08;99653.25;;;18.27;95.29
46079;BME280;31820;51.880;-0.518;2022-08-21T00:25:34;99658.53;;;18.29;95.12
46079;BME280;31820;51.880;-0.518;2022-08-21T00:27:59;99652.59;;;18.25;96.34
46079;BME280;31820;51.880;-0.518;2022-08-21T00:30:27;99650.25;;;18.22;96.66
46079;BME280;31820;51.880;-0.518;2022-08-21T00:32:54;99646.38;;;18.17;97.37
46079;BME280;31820;51.880;-0.518;2022-08-21T00:35:24;99644.19;;;18.12;97.92
46079;BME280;31820;51.880;-0.518;2022-08-21T00:37:50;99645.91;;;18.13;98.01
46079;BME280;31820;51.880;-0.518;2022-08-21T00:40:43;99640.81;;;18.10;98.40
46079;BME280;31820;51.880;-0.518;2022-08-21T00:43:12;99633.94;;;17.99;99.50
46079;BME280;31820;51.880;-0.518;2022-08-21T00:45:39;99632.44;;;17.97;100.00
46079;BME280;31820;51.880;-0.518;2022-08-21T00:48:05;99619.16;;;17.94;100.00
46079;BME280;31820;51.880;-0.518;2022-08-21T00:50:35;99625.50;;;17.86;100.00
46079;BME280;31820;51.880;-0.518;2022-08-21T00:53:05;99628.94;;;17.88;100.00
46079;BME280;31820;51.880;-0.518;2022-08-21T00:55:33;99621.44;;;17.82;100.00
46079;BME280;31820;51.880;-0.518;2022-08-21T00:58:00;99605.81;;;17.76;100.00
46079;BME280;31820;51.880;-0.518;2022-08-21T01:00:30;99600.25;;;17.69;100.00
46079;BME280;31820;51.880;-0.518;2022-08-21T01:02:57;99600.34;;;17.61;100.00
46079;BME280;31820;51.880;-0.518;2022-08-21T01:05:24;99599.50;;;17.60;100.00
46079;BME280;31820;51.880;-0.518;2022-08-21T01:07:49;99602.41;;;17.59;100.00
46079;BME280;31820;51.880;-0.518;2022-08-21T01:10:16;99613.88;;;17.54;100.00
46079;BME280;31820;51.880;-0.518;2022-08-21T01:12:42;99615.53;;;17.55;100.00
46079;BME280;31820;51.880;-0.518;2022-08-21T01:15:09;99617.81;;;17.51;100.00
46079;BME280;31820;51.880;-0.518;2022-08-21T01:17:36;99620.34;;;17.53;100.00
46079;BME280;31820;51.880;-0.518;2022-08-21T01:20:06;99617.53;;;17.61;100.00
46079;BME280;31820;51.880;-0.518;2022-08-21T01:22:32;99629.00;;;17.57;100.00
46079;BME280;31820;51.880;-0.518;2022-08-21T01:24:58;99626.16;;;17.50;100.00
46079;BME280;31820;51.880;-0.518;2022-08-21T01:27:23;99628.16;;;17.56;100.00
46079;BME280;31820;51.880;-0.518;2022-08-21T01:29:57;99628.06;;;17.49;100.00
46079;BME280;31820;51.880;-0.518;2022-08-21T01:32:23;99627.19;;;17.49;100.00
46079;BME280;31820;51.880;-0.518;2022-08-21T01:34:50;99618.81;;;17.50;100.00
46079;BME280;31820;51.880;-0.518;2022-08-21T01:37:17;99627.00;;;17.50;100.00
46079;BME280;31820;51.880;-0.518;2022-08-21T01:39:42;99630.97;;;17.48;100.00
46079;BME280;31820;51.880;-0.518;2022-08-21T01:42:08;99629.72;;;17.50;100.00
46079;BME280;31820;51.880;-0.518;2022-08-21T01:44:34;99626.34;;;17.48;100.00
46079;BME280;31820;51.880;-0.518;2022-08-21T01:47:03;99628.06;;;17.49;100.00
46079;BME280;31820;51.880;-0.518;2022-08-21T01:49:29;99625.03;;;17.44;100.00
46079;BME280;31820;51.880;-0.518;2022-08-21T01:51:54;99632.16;;;17.45;100.00
46079;BME280;31820;51.880;-0.518;2022-08-21T01:54:20;99629.13;;;17.40;100.00
46079;BME280;31820;51.880;-0.518;2022-08-21T01:56:50;99624.03;;;17.37;100.00
46079;BME280;31820;51.880;-0.518;2022-08-21T01:59:16;99622.34;;;17.36;100.00
46079;BME280;31820;51.880;-0.518;2022-08-21T02:01:42;99624.41;;;17.34;100.00
46079;BME280;31820;51.880;-0.518;2022-08-21T02:04:09;99625.50;;;17.25;100.00
46079;BME280;31820;51.880;-0.518;2022-08-21T02:06:35;99625.19;;;17.20;100.00
46079;BME280;31820;51.880;-0.518;2022-08-21T02:09:03;99617.38;;;17.16;100.00
46079;BME280;31820;51.880;-0.518;2022-08-21T02:11:29;99614.84;;;17.15;100.00
46079;BME280;31820;51.880;-0.518;2022-08-21T02:13:54;99610.22;;;17.15;100.00
46079;BME280;31820;51.880;-0.518;2022-08-21T02:16:20;99615.31;;;17.18;100.00
46079;BME280;31820;51.880;-0.518;2022-08-21T02:18:46;99617.38;;;17.16;100.00
46079;BME280;31820;51.880;-0.518;2022-08-21T02:21:12;99619.09;;;17.17;100.00
46079;BME280;31820;51.880;-0.518;2022-08-21T02:23:37;99622.34;;;17.13;100.00
46079;BME280;31820;51.880;-0.518;2022-08-21T02:26:05;99616.41;;;17.09;100.00
46079;BME280;31820;51.880;-0.518;2022-08-21T02:28:32;99615.91;;;17.06;100.00
46079;BME280;31820;51.880;-0.518;2022-08-21T02:30:57;99607.91;;;17.04;100.00
46079;BME280;31820;51.880;-0.518;2022-08-21T02:33:23;99613.91;;;16.99;100.00
46079;BME280;31820;51.880;-0.518;2022-08-21T02:35:50;99608.16;;;16.94;100.00
46079;BME280;31820;51.880;-0.518;2022-08-21T02:38:42;99613.13;;;16.91;100.00
46079;BME280;31820;51.880;-0.518;2022-08-21T02:41:11;99608.34;;;16.93;100.00
46079;BME280;31820;51.880;-0.518;2022-08-21T02:43:37;99603.59;;;16.87;100.00
46079;BME280;31820;51.880;-0.518;2022-08-21T02:46:04;99611.59;;;16.88;100.00
46079;BME280;31820;51.880;-0.518;2022-08-21T02:48:31;99608.34;;;16.85;100.00
46079;BME280;31820;51.880;-0.518;2022-08-21T02:51:06;99611.78;;;16.87;100.00
46079;BME280;31820;51.880;-0.518;2022-08-21T02:53:32;99617.53;;;16.83;100.00
46079;BME280;31820;51.880;-0.518;2022-08-21T02:56:01;99611.44;;;16.81;100.00
46079;BME280;31820;51.880;-0.518;2022-08-21T02:58:33;99614.50;;;16.78;100.00
46079;BME280;31820;51.880;-0.518;2022-08-21T03:00:59;99616.94;;;16.73;100.00
46079;BME280;31820;51.880;-0.518;2022-08-21T03:03:27;99611.66;;;16.72;100.00
46079;BME280;31820;51.880;-0.518;2022-08-21T03:05:53;99616.75;;;16.67;100.00
46079;BME280;31820;51.880;-0.518;2022-08-21T03:08:20;99615.56;;;16.69;100.00
46079;BME280;31820;51.880;-0.518;2022-08-21T03:10:48;99617.47;;;16.69;100.00
46079;BME280;31820;51.880;-0.518;2022-08-21T03:13:15;99614.75;;;16.69;100.00
46079;BME280;31820;51.880;-0.518;2022-08-21T03:15:41;99613.88;;;16.68;100.00
46079;BME280;31820;51.880;-0.518;2022-08-21T03:18:08;99607.59;;;16.68;100.00
46079;BME280;31820;51.880;-0.518;2022-08-21T03:20:37;99605.03;;;16.66;100.00
46079;BME280;31820;51.880;-0.518;2022-08-21T03:23:04;99609.66;;;16.66;100.00
46079;BME280;31820;51.880;-0.518;2022-08-21T03:25:30;99599.59;;;16.66;100.00
46079;BME280;31820;51.880;-0.518;2022-08-21T03:28:00;99593.44;;;16.72;100.00
46079;BME280;31820;51.880;-0.518;2022-08-21T03:30:26;99596.34;;;16.71;100.00
46079;BME280;31820;51.880;-0.518;2022-08-21T03:32:51;99593.50;;;16.64;100.00
46079;BME280;31820;51.880;-0.518;2022-08-21T03:35:19;99598.63;;;16.59;100.00
46079;BME280;31820;51.880;-0.518;2022-08-21T03:37:45;99591.00;;;16.54;100.00
46079;BME280;31820;51.880;-0.518;2022-08-21T03:40:12;99595.56;;;16.54;100.00
46079;BME280;31820;51.880;-0.518;2022-08-21T03:42:38;99587.41;;;16.54;100.00
46079;BME280;31820;51.880;-0.518;2022-08-21T03:45:04;99591.53;;;16.50;100.00
46079;BME280;31820;51.880;-0.518;2022-08-21T03:47:30;99582.84;;;16.46;100.00
46079;BME280;31820;51.880;-0.518;2022-08-21T03:49:56;99586.78;;;16.43;100.00
46079;BME280;31820;51.880;-0.518;2022-08-21T03:52:22;99592.03;;;16.45;100.00
46079;BME280;31820;51.880;-0.518;2022-08-21T03:54:48;99591.91;;;16.38;100.00
46079;BME280;31820;51.880;-0.518;2022-08-21T03:57:15;99588.63;;;16.43;100.00
46079;BME280;31820;51.880;-0.518;2022-08-21T03:59:42;99592.75;;;16.39;100.00
46079;BME280;31820;51.880;-0.518;2022-08-21T04:02:09;99588.84;;;16.33;100.00
46079;BME280;31820;51.880;-0.518;2022-08-21T04:04:34;99591.75;;;16.32;100.00
46079;BME280;31820;51.880;-0.518;2022-08-21T04:07:00;99587.53;;;16.29;100.00
46079;BME280;31820;51.880;-0.518;2022-08-21T04:09:26;99588.56;;;16.20;100.00
46079;BME280;31820;51.880;-0.518;2022-08-21T04:11:52;99583.44;;;16.25;100.00
46079;BME280;31820;51.880;-0.518;2022-08-21T04:14:18;99578.47;;;16.28;100.00
46079;BME280;31820;51.880;-0.518;2022-08-21T04:16:44;99575.59;;;16.30;100.00
46079;BME280;31820;51.880;-0.518;2022-08-21T04:19:12;99580.22;;;16.21;100.00
46079;BME280;31820;51.880;-0.518;2022-08-21T04:21:39;99577.19;;;16.16;100.00
46079;BME280;31820;51.880;-0.518;2022-08-21T04:24:05;99577.03;;;16.18;100.00
46079;BME280;31820;51.880;-0.518;2022-08-21T04:26:33;99579.53;;;16.27;100.00
46079;BME280;31820;51.880;-0.518;2022-08-21T04:29:00;99584.84;;;16.21;100.00
46079;BME280;31820;51.880;-0.518;2022-08-21T04:31:26;99575.13;;;16.18;100.00
46079;BME280;31820;51.880;-0.518;2022-08-21T04:33:53;99574.13;;;16.19;100.00
46079;BME280;31820;51.880;-0.518;2022-08-21T04:36:18;99578.88;;;16.17;100.00
46079;BME280;31820;51.880;-0.518;2022-08-21T04:38:44;99576.84;;;16.11;100.00
46079;BME280;31820;51.880;-0.518;2022-08-21T04:41:09;99585.19;;;16.09;100.00
46079;BME280;31820;51.880;-0.518;2022-08-21T04:43:35;99582.16;;;16.04;100.00
46079;BME280;31820;51.880;-0.518;2022-08-21T04:46:01;99593.69;;;16.06;100.00
46079;BME280;31820;51.880;-0.518;2022-08-21T04:48:26;99594.91;;;16.04;100.00
46079;BME280;31820;51.880;-0.518;2022-08-21T04:50:59;99592.16;;;16.12;100.00
46079;BME280;31820;51.880;-0.518;2022-08-21T04:53:33;99600.81;;;16.16;100.00
46079;BME280;31820;51.880;-0.518;2022-08-21T04:56:04;99596.41;;;16.15;100.00
46079;BME280;31820;51.880;-0.518;2022-08-21T04:58:34;99591.50;;;16.10;100.00
46079;BME280;31820;51.880;-0.518;2022-08-21T05:01:01;99589.25;;;16.14;100.00
46079;BME280;31820;51.880;-0.518;2022-08-21T05:03:27;99592.50;;;16.09;100.00
46079;BME280;31820;51.880;-0.518;2022-08-21T05:05:54;99599.47;;;16.12;100.00
46079;BME280;31820;51.880;-0.518;2022-08-21T05:08:21;99597.78;;;16.10;100.00
46079;BME280;31820;51.880;-0.518;2022-08-21T05:10:48;99603.19;;;16.19;100.00
46079;BME280;31820;51.880;-0.518;2022-08-21T05:13:15;99604.53;;;16.23;100.00
46079;BME280;31820;51.880;-0.518;2022-08-21T05:15:41;99605.03;;;16.26;100.00
46079;BME280;31820;51.880;-0.518;2022-08-21T05:18:07;99609.63;;;16.26;100.00
46079;BME280;31820;51.880;-0.518;2022-08-21T05:20:33;99617.75;;;16.34;100.00
46079;BME280;31820;51.880;-0.518;2022-08-21T05:23:00;99621.00;;;16.30;100.00
46079;BME280;31820;51.880;-0.518;2022-08-21T05:25:26;99629.53;;;16.26;100.00
46079;BME280;31820;51.880;-0.518;2022-08-21T05:27:51;99640.06;;;16.30;100.00
46079;BME280;31820;51.880;-0.518;2022-08-21T05:30:17;99636.66;;;16.27;100.00
46079;BME280;31820;51.880;-0.518;2022-08-21T05:32:42;99650.41;;;16.34;100.00
46079;BME280;31820;51.880;-0.518;2022-08-21T05:35:08;99656.53;;;16.36;100.00
46079;BME280;31820;51.880;-0.518;2022-08-21T05:37:34;99660.28;;;16.35;100.00
46079;BME280;31820;51.880;-0.518;2022-08-21T05:40:00;99659.94;;;16.30;100.00
46079;BME280;31820;51.880;-0.518;2022-08-21T05:42:26;99658.72;;;16.41;100.00
46079;BME280;31820;51.880;-0.518;2022-08-21T05:44:53;99659.75;;;16.48;100.00
46079;BME280;31820;51.880;-0.518;2022-08-21T05:47:18;99655.97;;;16.49;100.00
46079;BME280;31820;51.880;-0.518;2022-08-21T05:49:44;99662.44;;;16.56;100.00
46079;BME280;31820;51.880;-0.518;2022-08-21T05:52:09;99665.28;;;16.63;100.00
46079;BME280;31820;51.880;-0.518;2022-08-21T05:54:37;99663.16;;;16.90;100.00
46079;BME280;31820;51.880;-0.518;2022-08-21T05:57:02;99654.34;;;17.19;100.00
46079;BME280;31820;51.880;-0.518;2022-08-21T05:59:28;99654.25;;;17.50;100.00
46079;BME280;31820;51.880;-0.518;2022-08-21T06:01:53;99655.44;;;18.17;100.00
46079;BME280;31820;51.880;-0.518;2022-08-21T06:04:19;99655.06;;;19.53;100.00
46079;BME280;31820;51.880;-0.518;2022-08-21T06:06:45;99654.75;;;19.63;100.00
46079;BME280;31820;51.880;-0.518;2022-08-21T06:09:11;99659.47;;;19.54;100.00
46079;BME280;31820;51.880;-0.518;2022-08-21T06:11:37;99652.53;;;19.51;100.00
46079;BME280;31820;51.880;-0.518;2022-08-21T06:14:02;99657.75;;;19.90;96.87
46079;BME280;31820;51.880;-0.518;2022-08-21T06:16:28;99660.31;;;19.33;100.00
46079;BME280;31820;51.880;-0.518;2022-08-21T06:18:53;99655.97;;;19.02;100.00
46079;BME280;31820;51.880;-0.518;2022-08-21T06:21:19;99659.28;;;18.97;100.00
46079;BME280;31820;51.880;-0.518;2022-08-21T06:23:44;99668.63;;;18.88;100.00
46079;BME280;31820;51.880;-0.518;2022-08-21T06:26:12;99662.59;;;18.63;100.00
46079;BME280;31820;51.880;-0.518;2022-08-21T06:28:40;99664.19;;;18.57;100.00
46079;BME280;31820;51.880;-0.518;2022-08-21T06:31:21;99665.72;;;18.90;100.00
46079;BME280;31820;51.880;-0.518;2022-08-21T06:33:47;99657.41;;;18.98;100.00
46079;BME280;31820;51.880;-0.518;2022-08-21T06:36:13;99662.69;;;18.85;100.00
46079;BME280;31820;51.880;-0.518;2022-08-21T06:38:39;99660.59;;;18.72;100.00
46079;BME280;31820;51.880;-0.518;2022-08-21T06:41:05;99659.88;;;18.63;100.00
46079;BME280;31820;51.880;-0.518;2022-08-21T06:43:31;99646.66;;;18.67;100.00
46079;BME280;31820;51.880;-0.518;2022-08-21T06:45:57;99648.00;;;18.71;100.00
46079;BME280;31820;51.880;-0.518;2022-08-21T06:48:22;99650.81;;;18.62;100.00
46079;BME280;31820;51.880;-0.518;2022-08-21T06:50:48;99647.03;;;18.78;100.00
46079;BME280;31820;51.880;-0.518;2022-08-21T06:53:16;99649.91;;;18.85;100.00
46079;BME280;31820;51.880;-0.518;2022-08-21T06:55:42;99645.22;;;19.01;100.00
46079;BME280;31820;51.880;-0.518;2022-08-21T06:58:09;99642.16;;;19.47;100.00
46079;BME280;31820;51.880;-0.518;2022-08-21T07:00:37;99644.50;;;19.71;99.28
46079;BME280;31820;51.880;-0.518;2022-08-21T07:03:03;99640.41;;;20.11;95.95
46079;BME280;31820;51.880;-0.518;2022-08-21T07:05:29;99647.28;;;20.28;92.93
46079;BME280;31820;51.880;-0.518;2022-08-21T07:07:56;99636.88;;;20.52;92.08
46079;BME280;31820;51.880;-0.518;2022-08-21T07:10:23;99628.97;;;20.64;91.55
46079;BME280;31820;51.880;-0.518;2022-08-21T07:12:50;99622.81;;;20.61;91.17
46079;BME280;31820;51.880;-0.518;2022-08-21T07:15:15;99630.53;;;20.80;89.12
46079;BME280;31820;51.880;-0.518;2022-08-21T07:17:41;99632.09;;;21.02;87.69
46079;BME280;31820;51.880;-0.518;2022-08-21T07:20:07;99636.56;;;21.30;86.67
46079;BME280;31820;51.880;-0.518;2022-08-21T07:22:32;99633.28;;;21.61;85.58
46079;BME280;31820;51.880;-0.518;2022-08-21T07:25:00;99638.38;;;21.78;81.83
46079;BME280;31820;51.880;-0.518;2022-08-21T07:27:26;99645.97;;;21.76;84.61
46079;BME280;31820;51.880;-0.518;2022-08-21T07:29:51;99639.03;;;21.73;83.41
46079;BME280;31820;51.880;-0.518;2022-08-21T07:32:17;99649.38;;;21.84;83.90
46079;BME280;31820;51.880;-0.518;2022-08-21T07:34:42;99651.03;;;22.26;82.30
46079;BME280;31820;51.880;-0.518;2022-08-21T07:37:08;99648.50;;;21.97;81.22
46079;BME280;31820;51.880;-0.518;2022-08-21T07:39:33;99644.91;;;22.10;80.51
46079;BME280;31820;51.880;-0.518;2022-08-21T07:41:59;99649.31;;;22.25;79.46
46079;BME280;31820;51.880;-0.518;2022-08-21T07:44:24;99647.25;;;22.33;79.51
46079;BME280;31820;51.880;-0.518;2022-08-21T07:46:50;99639.41;;;22.23;78.24
46079;BME280;31820;51.880;-0.518;2022-08-21T07:49:15;99639.22;;;22.12;79.25
46079;BME280;31820;51.880;-0.518;2022-08-21T07:51:41;99640.47;;;22.16;78.79
46079;BME280;31820;51.880;-0.518;2022-08-21T07:54:07;99634.56;;;22.05;79.98
46079;BME280;31820;51.880;-0.518;2022-08-21T07:56:33;99637.53;;;22.04;80.32
46079;BME280;31820;51.880;-0.518;2022-08-21T07:58:59;99639.22;;;21.98;79.00
46079;BME280;31820;51.880;-0.518;2022-08-21T08:01:25;99624.22;;;21.74;79.64
46079;BME280;31820;51.880;-0.518;2022-08-21T08:03:50;99640.25;;;22.04;79.60
46079;BME280;31820;51.880;-0.518;2022-08-21T08:06:16;99641.75;;;22.27;78.69
46079;BME280;31820;51.880;-0.518;2022-08-21T08:08:44;99648.94;;;22.14;78.45
46079;BME280;31820;51.880;-0.518;2022-08-21T08:11:10;99645.13;;;21.82;79.85
46079;BME280;31820;51.880;-0.518;2022-08-21T08:13:47;99659.69;;;21.62;80.67
46079;BME280;31820;51.880;-0.518;2022-08-21T08:16:13;99651.66;;;21.67;80.60
46079;BME280;31820;51.880;-0.518;2022-08-21T08:18:39;99653.78;;;21.72;80.55
46079;BME280;31820;51.880;-0.518;2022-08-21T08:21:07;99661.19;;;21.65;80.63
46079;BME280;31820;51.880;-0.518;2022-08-21T08:23:33;99656.09;;;21.75;80.61
46079;BME280;31820;51.880;-0.518;2022-08-21T08:26:00;99643.00;;;21.77;79.37
46079;BME280;31820;51.880;-0.518;2022-08-21T08:28:28;99643.03;;;22.11;78.60
46079;BME280;31820;51.880;-0.518;2022-08-21T08:30:54;99629.03;;;22.39;77.34
46079;BME280;31820;51.880;-0.518;2022-08-21T08:33:19;99630.47;;;22.55;76.47
46079;BME280;31820;51.880;-0.518;2022-08-21T08:35:46;99622.41;;;22.67;75.17
46079;BME280;31820;51.880;-0.518;2022-08-21T08:38:14;99628.97;;;22.66;75.81
46079;BME280;31820;51.880;-0.518;2022-08-21T08:43:18;99641.94;;;22.45;76.00
46079;BME280;31820;51.880;-0.518;2022-08-21T08:45:48;99647.88;;;22.35;76.11
46079;BME280;31820;51.880;-0.518;2022-08-21T08:48:39;99648.69;;;22.29;76.94
46079;BME280;31820;51.880;-0.518;2022-08-21T08:51:12;99651.88;;;21.99;77.18
46079;BME280;31820;51.880;-0.518;2022-08-21T08:53:50;99660.31;;;21.98;77.66
46079;BME280;31820;51.880;-0.518;2022-08-21T08:56:27;99657.38;;;22.19;77.12
46079;BME280;31820;51.880;-0.518;2022-08-21T08:58:58;99644.06;;;22.16;76.35
46079;BME280;31820;51.880;-0.518;2022-08-21T09:01:25;99654.59;;;22.26;76.62
46079;BME280;31820;51.880;-0.518;2022-08-21T09:03:51;99662.47;;;22.09;76.51
46079;BME280;31820;51.880;-0.518;2022-08-21T09:12:04;99654.63;;;22.19;75.80
46079;BME280;31820;51.880;-0.518;2022-08-21T09:20:36;99660.50;;;22.63;73.54
46079;BME280;31820;51.880;-0.518;2022-08-21T09:23:17;99655.00;;;22.56;73.87
46079;BME280;31820;51.880;-0.518;2022-08-21T09:26:21;99656.69;;;22.57;73.44
46079;BME280;31820;51.880;-0.518;2022-08-21T09:28:56;99652.91;;;22.58;74.62
46079;BME280;31820;51.880;-0.518;2022-08-21T09:31:26;99656.88;;;22.69;74.22
46079;BME280;31820;51.880;-0.518;2022-08-21T09:34:00;99659.91;;;22.41;74.81
46079;BME280;31820;51.880;-0.518;2022-08-21T09:36:35;99659.06;;;22.47;74.46
46079;BME280;31820;51.880;-0.518;2022-08-21T09:39:03;99657.81;;;22.30;75.88
46079;BME280;31820;51.880;-0.518;2022-08-21T09:41:31;99669.19;;;22.47;75.23
46079;BME280;31820;51.880;-0.518;2022-08-21T09:43:57;99671.72;;;22.48;74.90
46079;BME280;31820;51.880;-0.518;2022-08-21T09:46:25;99662.25;;;22.44;74.36
46079;BME280;31820;51.880;-0.518;2022-08-21T09:48:55;99676.16;;;22.49;74.18
46079;BME280;31820;51.880;-0.518;2022-08-21T09:51:35;99667.72;;;22.51;73.37
46079;BME280;31820;51.880;-0.518;2022-08-21T09:59:24;99671.69;;;22.68;72.78
46079;BME280;31820;51.880;-0.518;2022-08-21T10:01:51;99674.69;;;22.53;72.64
46079;BME280;31820;51.880;-0.518;2022-08-21T10:04:21;99667.28;;;22.40;72.10
46079;BME280;31820;51.880;-0.518;2022-08-21T10:06:48;99671.94;;;22.47;72.60
46079;BME280;31820;51.880;-0.518;2022-08-21T10:09:15;99672.59;;;22.35;72.24
46079;BME280;31820;51.880;-0.518;2022-08-21T10:19:32;99673.00;;;22.52;71.26
46079;BME280;31820;51.880;-0.518;2022-08-21T10:25:14;99664.56;;;22.34;72.03
46079;BME280;31820;51.880;-0.518;2022-08-21T10:28:17;99671.31;;;21.98;71.99
46079;BME280;31820;51.880;-0.518;2022-08-21T10:31:14;99676.00;;;22.11;71.47
46079;BME280;31820;51.880;-0.518;2022-08-21T10:34:00;99666.91;;;21.97;72.11
46079;BME280;31820;51.880;-0.518;2022-08-21T10:36:33;99667.50;;;22.12;71.96
46079;BME280;31820;51.880;-0.518;2022-08-21T10:39:13;99673.44;;;22.16;72.42
46079;BME280;31820;51.880;-0.518;2022-08-21T10:47:19;99665.63;;;22.33;72.00
46079;BME280;31820;51.880;-0.518;2022-08-21T10:55:41;99663.28;;;22.16;70.08
46079;BME280;31820;51.880;-0.518;2022-08-21T10:58:14;99658.41;;;22.18;71.21
46079;BME280;31820;51.880;-0.518;2022-08-21T11:00:47;99657.38;;;22.33;70.64
46079;BME280;31820;51.880;-0.518;2022-08-21T11:03:20;99660.75;;;22.21;70.82
46079;BME280;31820;51.880;-0.518;2022-08-21T11:13:31;99660.13;;;22.39;70.46
46079;BME280;31820;51.880;-0.518;2022-08-21T11:16:07;99656.09;;;22.42;69.81
46079;BME280;31820;51.880;-0.518;2022-08-21T11:24:03;99669.59;;;22.64;69.55
46079;BME280;31820;51.880;-0.518;2022-08-21T11:29:34;99673.59;;;22.68;69.93
46079;BME280;31820;51.880;-0.518;2022-08-21T11:35:28;99681.97;;;22.86;68.16
46079;BME280;31820;51.880;-0.518;2022-08-21T11:43:40;99677.13;;;22.88;67.22
46079;BME280;31820;51.880;-0.518;2022-08-21T11:48:48;99678.66;;;23.29;65.54
46079;BME280;31820;51.880;-0.518;2022-08-21T11:51:22;99677.31;;;23.39;64.02
46079;BME280;31820;51.880;-0.518;2022-08-21T11:54:07;99678.22;;;23.33;63.66
46079;BME280;31820;51.880;-0.518;2022-08-21T11:56:38;99676.22;;;23.46;62.54
46079;BME280;31820;51.880;-0.518;2022-08-21T11:59:22;99675.53;;;23.58;61.49
46079;BME280;31820;51.880;-0.518;2022-08-21T12:01:50;99672.63;;;23.46;61.68
46079;BME280;31820;51.880;-0.518;2022-08-21T12:04:27;99669.41;;;23.88;58.86
46079;BME280;31820;51.880;-0.518;2022-08-21T12:06:54;99673.19;;;24.18;57.20
46079;BME280;31820;51.880;-0.518;2022-08-21T12:09:33;99666.50;;;23.76;58.64
46079;BME280;31820;51.880;-0.518;2022-08-21T12:12:10;99669.53;;;23.67;60.32
46079;BME280;31820;51.880;-0.518;2022-08-21T12:14:38;99674.31;;;23.86;59.11
46079;BME280;31820;51.880;-0.518;2022-08-21T12:17:07;99671.56;;;24.11;57.17
46079;BME280;31820;51.880;-0.518;2022-08-21T12:19:32;99672.38;;;24.36;55.71
46079;BME280;31820;51.880;-0.518;2022-08-21T12:22:07;99663.06;;;24.56;55.97
46079;BME280;31820;51.880;-0.518;2022-08-21T12:24:45;99664.09;;;24.62;55.90
46079;BME280;31820;51.880;-0.518;2022-08-21T12:30:01;99666.22;;;24.16;55.15
46079;BME280;31820;51.880;-0.518;2022-08-21T12:32:30;99663.13;;;24.49;54.10
46079;BME280;31820;51.880;-0.518;2022-08-21T12:35:17;99662.19;;;24.62;52.15
46079;BME280;31820;51.880;-0.518;2022-08-21T12:37:57;99652.84;;;24.38;53.78
46079;BME280;31820;51.880;-0.518;2022-08-21T12:45:56;99653.72;;;24.38;53.03
46079;BME280;31820;51.880;-0.518;2022-08-21T12:51:10;99648.94;;;24.27;51.84
46079;BME280;31820;51.880;-0.518;2022-08-21T12:53:46;99647.03;;;24.28;51.67
46079;BME280;31820;51.880;-0.518;2022-08-21T12:56:15;99643.19;;;24.29;53.82
46079;BME280;31820;51.880;-0.518;2022-08-21T12:58:46;99649.63;;;24.66;52.48
46079;BME280;31820;51.880;-0.518;2022-08-21T13:01:19;99639.28;;;24.99;51.50
46079;BME280;31820;51.880;-0.518;2022-08-21T13:03:46;99646.53;;;25.12;49.93
46079;BME280;31820;51.880;-0.518;2022-08-21T13:06:17;99645.03;;;25.27;49.23
46079;BME280;31820;51.880;-0.518;2022-08-21T13:08:46;99649.31;;;25.23;48.51
46079;BME280;31820;51.880;-0.518;2022-08-21T13:11:14;99643.66;;;25.18;48.63
46079;BME280;31820;51.880;-0.518;2022-08-21T13:13:42;99647.72;;;25.34;46.29
46079;BME280;31820;51.880;-0.518;2022-08-21T13:16:08;99641.06;;;25.54;45.14
46079;BME280;31820;51.880;-0.518;2022-08-21T13:18:39;99643.78;;;25.42;47.89
46079;BME280;31820;51.880;-0.518;2022-08-21T13:21:16;99639.28;;;24.80;47.34
46079;BME280;31820;51.880;-0.518;2022-08-21T13:23:42;99633.94;;;24.23;49.66
46079;BME280;31820;51.880;-0.518;2022-08-21T13:26:20;99632.34;;;24.34;49.39
46079;BME280;31820;51.880;-0.518;2022-08-21T13:28:47;99643.19;;;24.72;49.65
46079;BME280;31820;51.880;-0.518;2022-08-21T13:31:16;99636.56;;;24.92;48.46
46079;BME280;31820;51.880;-0.518;2022-08-21T13:33:43;99637.25;;;24.87;46.31
46079;BME280;31820;51.880;-0.518;2022-08-21T13:36:21;99627.56;;;24.66;45.81
46079;BME280;31820;51.880;-0.518;2022-08-21T13:38:51;99629.53;;;24.78;48.47
46079;BME280;31820;51.880;-0.518;2022-08-21T13:41:31;99626.59;;;25.09;48.22
46079;BME280;31820;51.880;-0.518;2022-08-21T13:44:04;99620.81;;;25.11;47.98
46079;BME280;31820;51.880;-0.518;2022-08-21T13:46:34;99611.56;;;25.24;45.74
46079;BME280;31820;51.880;-0.518;2022-08-21T13:49:02;99619.13;;;24.80;46.94
46079;BME280;31820;51.880;-0.518;2022-08-21T13:51:30;99627.34;;;25.17;47.09
46079;BME280;31820;51.880;-0.518;2022-08-21T13:53:58;99626.16;;;25.43;46.88
46079;BME280;31820;51.880;-0.518;2022-08-21T13:56:30;99625.25;;;25.61;45.65
46079;BME280;31820;51.880;-0.518;2022-08-21T13:58:58;99615.78;;;25.69;45.50
46079;BME280;31820;51.880;-0.518;2022-08-21T14:01:36;99615.78;;;25.80;44.83
46079;BME280;31820;51.880;-0.518;2022-08-21T14:04:17;99622.06;;;25.45;45.16
46079;BME280;31820;51.880;-0.518;2022-08-21T14:06:44;99625.88;;;25.33;45.06
46079;BME280;31820;51.880;-0.518;2022-08-21T14:09:34;99630.88;;;25.24;46.51
46079;BME280;31820;51.880;-0.518;2022-08-21T14:12:02;99622.31;;;24.95;44.67
46079;BME280;31820;51.880;-0.518;2022-08-21T14:14:38;99628.28;;;24.92;46.65